Time;durP1;ratioP1;P1;durP2;ratioP2;P2;SDS_P1;SDS_P2;PMS_P1;PMS_P2;Temp;Humidity;BMP_temperature;BMP_pressure;BME280_temperature;BME280_humidity;BME280_pressure;Samples;Min_cycle;Max_cycle;Signal;HPM_P1;HPM_P2
2021/12/15 00:02:38;;;;;;;31.45;14.55;;;3.20;99.90;;;;;;5110034;28;20199;-74
2021/12/15 00:05:13;;;;;;;33.80;14.43;;;3.20;99.90;;;;;;5109934;28;20101;-74
2021/12/15 00:07:45;;;;;;;31.67;14.40;;;3.20;99.90;;;;;;5111791;28;20049;-74
2021/12/15 00:10:18;;;;;;;31.23;14.80;;;3.20;99.90;;;;;;5096824;28;20046;-74
2021/12/15 00:12:50;;;;;;;31.02;14.55;;;3.20;99.90;;;;;;5112961;28;20572;-74
2021/12/15 00:15:23;;;;;;;40.72;16.42;;;3.20;99.90;;;;;;5112929;28;20036;-74
2021/12/15 00:17:56;;;;;;;33.25;16.13;;;3.20;99.90;;;;;;5112874;28;20038;-74
2021/12/15 00:20:25;;;;;;;28.80;14.55;;;3.20;99.90;;;;;;5112725;28;20048;-74
2021/12/15 00:22:57;;;;;;;;;;;3.20;99.90;;;;;;5113237;28;20047;-74
2021/12/15 00:25:34;;;;;;;44.38;17.02;;;3.20;99.90;;;;;;5113122;28;20006;-73
2021/12/15 00:28:07;;;;;;;37.75;16.40;;;3.20;99.90;;;;;;5096482;28;20148;-74
2021/12/15 00:30:39;;;;;;;35.70;15.23;;;3.20;99.90;;;;;;5097123;28;20479;-74
2021/12/15 00:33:07;;;;;;;25.02;14.40;;;3.20;99.90;;;;;;5114019;28;20071;-74
2021/12/15 00:35:40;;;;;;;26.38;13.25;;;3.20;99.90;;;;;;5097144;28;20038;-74
2021/12/15 00:38:12;;;;;;;37.15;15.48;;;3.10;99.90;;;;;;5096540;28;20123;-73
2021/12/15 00:40:40;;;;;;;26.95;13.20;;;3.10;99.90;;;;;;5112371;28;20062;-73
2021/12/15 00:43:07;;;;;;;38.25;15.90;;;3.10;99.90;;;;;;5095391;28;20484;-74
2021/12/15 00:45:40;;;;;;;32.10;15.23;;;3.10;99.90;;;;;;5112208;28;20071;-74
2021/12/15 00:48:12;;;;;;;28.90;14.90;;;3.10;99.90;;;;;;5112649;28;20049;-74
2021/12/15 00:50:45;;;;;;;27.08;13.68;;;3.10;99.90;;;;;;5112230;28;20035;-74
2021/12/15 00:53:18;;;;;;;30.15;14.40;;;3.10;99.90;;;;;;5095596;28;20044;-74
2021/12/15 00:55:45;;;;;;;24.45;13.02;;;3.10;99.90;;;;;;5112360;28;20071;-74
2021/12/15 00:58:17;;;;;;;28.98;14.70;;;3.00;99.90;;;;;;5112379;28;20130;-74
2021/12/15 01:00:47;;;;;;;32.10;13.80;;;3.00;99.90;;;;;;5095645;28;20134;-74
2021/12/15 01:03:20;;;;;;;25.08;12.85;;;3.10;99.90;;;;;;5095885;28;20044;-74
2021/12/15 01:05:58;;;;;;;27.23;13.45;;;3.10;99.90;;;;;;5112491;28;20114;-74
2021/12/15 01:08:28;;;;;;;23.95;12.20;;;3.10;99.90;;;;;;5095521;28;20497;-73
2021/12/15 01:11:18;;;;;;;23.77;12.48;;;3.10;99.90;;;;;;5095056;28;20486;-74
2021/12/15 01:19:51;;;;;;;22.20;11.82;;;3.10;99.90;;;;;;5111998;28;20043;-74
2021/12/15 01:22:28;;;;;;;23.88;11.63;;;3.20;99.90;;;;;;5095487;28;20048;-74
2021/12/15 01:25:15;;;;;;;20.52;11.00;;;3.20;99.90;;;;;;5112100;28;20039;-74
2021/12/15 01:27:42;;;;;;;23.55;12.23;;;3.20;99.90;;;;;;5112059;28;20131;-74
2021/12/15 01:30:12;;;;;;;29.77;13.70;;;3.20;99.90;;;;;;5112016;28;20067;-74
2021/12/15 01:32:39;;;;;;;33.85;13.00;;;3.20;99.90;;;;;;5111007;28;20486;-74
2021/12/15 01:35:07;;;;;;;28.50;13.55;;;3.20;99.90;;;;;;5111314;28;20134;-74
2021/12/15 01:37:39;;;;;;;36.90;13.50;;;3.10;99.90;;;;;;5111119;28;20035;-74
2021/12/15 01:40:21;;;;;;;26.38;12.23;;;3.10;99.90;;;;;;5095336;28;20050;-74
2021/12/15 01:42:53;;;;;;;45.00;14.63;;;3.10;99.90;;;;;;5111249;28;20046;-74
2021/12/15 01:48:14;;;;;;;31.35;13.05;;;3.10;99.90;;;;;;5111541;28;20131;-73
2021/12/15 01:50:42;;;;;;;21.30;12.40;;;3.10;99.90;;;;;;5094679;28;20050;-74
2021/12/15 01:53:11;;;;;;;26.42;12.63;;;3.10;99.90;;;;;;5093569;28;20046;-74
2021/12/15 01:55:44;;;;;;;32.42;13.73;;;3.10;99.90;;;;;;5111087;28;20216;-74
2021/12/15 01:58:10;;;;;;;27.33;13.40;;;3.10;99.90;;;;;;5111971;28;20110;-74
2021/12/15 02:00:47;;;;;;;36.03;13.75;;;3.20;99.90;;;;;;5111371;28;20054;-74
2021/12/15 02:03:14;;;;;;;30.05;13.18;;;3.20;99.90;;;;;;5095080;28;20090;-74
2021/12/15 02:05:46;;;;;;;28.05;12.85;;;3.20;99.90;;;;;;5094663;28;20119;-74
2021/12/15 02:08:14;;;;;;;22.38;11.80;;;3.10;99.90;;;;;;5093815;28;20051;-74
2021/12/15 02:10:46;;;;;;;23.52;12.13;;;3.10;99.90;;;;;;5112091;28;20039;-74
2021/12/15 02:13:18;;;;;;;22.83;11.05;;;3.10;99.90;;;;;;5110099;28;20520;-74
2021/12/15 02:15:55;;;;;;;23.95;12.02;;;3.10;99.90;;;;;;5109859;28;20123;-74
2021/12/15 02:18:30;;;;;;;23.25;11.32;;;3.20;99.90;;;;;;5109917;28;20127;-74
2021/12/15 02:21:21;;;;;;;27.02;12.50;;;3.20;99.90;;;;;;5110029;28;20075;-74
2021/12/15 02:23:56;;;;;;;33.40;15.45;;;3.20;99.90;;;;;;5094285;28;20138;-74
2021/12/15 02:26:35;;;;;;;44.75;15.82;;;3.20;99.90;;;;;;5110658;28;20099;-74
2021/12/15 02:29:15;;;;;;;67.53;18.20;;;3.20;99.90;;;;;;5109823;28;20142;-74
2021/12/15 02:37:17;;;;;;;36.13;14.30;;;3.20;99.90;;;;;;5110259;28;20031;-73
2021/12/15 02:40:01;;;;;;;48.13;16.58;;;3.20;99.90;;;;;;5094097;28;20388;-73
2021/12/15 02:42:33;;;;;;;81.60;20.42;;;3.20;99.90;;;;;;5109926;28;20044;-73
2021/12/15 02:45:00;;;;;;;47.67;16.15;;;3.20;99.90;;;;;;5110841;28;20062;-73
2021/12/15 02:47:30;;;;;;;35.63;15.43;;;3.10;99.90;;;;;;5110576;28;20487;-73
2021/12/15 02:50:09;;;;;;;52.97;15.45;;;3.10;99.90;;;;;;5110331;28;20040;-73
2021/12/15 02:52:42;;;;;;;29.65;14.88;;;3.10;99.90;;;;;;5110794;28;20036;-74
2021/12/15 02:55:16;;;;;;;41.38;15.35;;;3.10;99.90;;;;;;5094405;28;20040;-73
2021/12/15 02:57:44;;;;;;;31.52;14.02;;;3.10;99.90;;;;;;5096608;28;20039;-73
2021/12/15 03:00:22;;;;;;;24.83;12.52;;;3.10;99.90;;;;;;5112449;28;20123;-73
2021/12/15 03:03:32;;;;;;;18.15;10.73;;;3.10;99.90;;;;;;5110173;28;20036;-74
2021/12/15 03:06:12;;;;;;;22.25;11.50;;;3.10;99.90;;;;;;5111742;28;20487;-74
2021/12/15 03:08:53;;;;;;;23.15;11.27;;;3.10;99.90;;;;;;5093467;28;20075;-74
2021/12/15 03:16:58;;;;;;;24.67;11.77;;;3.10;99.90;;;;;;5110467;28;20035;-74
2021/12/15 03:19:31;;;;;;;20.60;10.63;;;3.10;99.90;;;;;;5093065;28;20049;-73
2021/12/15 03:22:03;;;;;;;21.73;11.15;;;3.10;99.90;;;;;;5110704;28;20043;-73
2021/12/15 03:24:29;;;;;;;31.05;13.20;;;3.20;99.90;;;;;;5109854;28;20147;-74
2021/12/15 03:27:07;;;;;;;28.30;13.13;;;3.20;99.90;;;;;;5094044;28;20139;-73
2021/12/15 03:37:52;;;;;;;74.57;16.60;;;3.20;99.90;;;;;;5111152;28;20039;-73
2021/12/15 03:40:27;;;;;;;69.93;16.40;;;3.20;99.90;;;;;;5109164;28;20064;-73
2021/12/15 03:43:04;;;;;;;39.15;15.30;;;3.10;99.90;;;;;;5096820;28;20127;-73
2021/12/15 03:45:46;;;;;;;29.50;15.25;;;3.10;99.90;;;;;;5113973;28;20044;-73
2021/12/15 03:48:18;;;;;;;31.52;16.40;;;3.10;99.90;;;;;;5114013;28;20036;-73
2021/12/15 03:50:46;;;;;;;24.45;11.95;;;3.10;99.90;;;;;;5113925;28;20063;-73
2021/12/15 03:53:14;;;;;;;26.15;12.18;;;3.10;99.90;;;;;;5113155;28;20074;-73
2021/12/15 03:55:42;;;;;;;33.30;14.55;;;3.00;99.90;;;;;;5113812;28;20071;-73
2021/12/15 03:58:12;;;;;;;25.10;12.48;;;3.00;99.90;;;;;;5113010;28;20058;-73
2021/12/15 04:00:45;;;;;;;22.58;13.13;;;3.00;99.90;;;;;;5096188;28;20567;-73
2021/12/15 04:03:19;;;;;;;28.30;12.60;;;3.10;99.90;;;;;;5097340;28;20414;-73
2021/12/15 04:05:53;;;;;;;28.05;13.98;;;3.00;99.90;;;;;;5113983;28;20043;-73
2021/12/15 04:08:27;;;;;;;23.77;11.85;;;3.10;99.90;;;;;;5113836;28;20134;-73
2021/12/15 04:11:01;;;;;;;20.02;11.52;;;3.10;99.90;;;;;;5097385;28;20415;-73
2021/12/15 04:13:34;;;;;;;29.48;12.32;;;3.10;99.90;;;;;;5113129;28;20040;-73
2021/12/15 04:16:09;;;;;;;34.42;15.65;;;3.10;99.90;;;;;;5097156;28;20128;-73
2021/12/15 04:18:41;;;;;;;86.32;19.90;;;3.10;99.90;;;;;;5112921;28;20035;-73
2021/12/15 04:21:07;;;;;;;76.53;27.67;;;3.10;99.90;;;;;;5111993;28;20142;-73
2021/12/15 04:23:34;;;;;;;52.97;24.40;;;3.10;99.90;;;;;;5094853;28;20138;-73
2021/12/15 04:26:06;;;;;;;80.10;21.70;;;3.10;99.90;;;;;;5113869;28;20071;-73
2021/12/15 04:28:39;;;;;;;55.35;18.33;;;3.10;99.90;;;;;;5112584;28;20130;-73
2021/12/15 04:31:09;;;;;;;35.58;15.48;;;3.10;99.90;;;;;;5113190;28;20483;-73
2021/12/15 04:33:44;;;;;;;32.83;15.55;;;3.10;99.90;;;;;;5112962;28;20521;-74
2021/12/15 04:36:13;;;;;;;56.25;17.42;;;3.10;99.90;;;;;;5112393;28;20044;-73
2021/12/15 04:38:46;;;;;;;67.95;19.48;;;3.10;99.90;;;;;;5096428;28;20071;-74
2021/12/15 04:41:20;;;;;;;40.60;15.23;;;3.20;99.90;;;;;;5096476;28;20536;-74
2021/12/15 04:44:00;;;;;;;;;;;3.20;99.90;;;;;;5113029;28;20035;-74
2021/12/15 04:46:34;;;;;;;31.33;13.40;;;3.20;99.90;;;;;;5112841;28;20003;-73
2021/12/15 04:49:05;;;;;;;33.30;12.95;;;3.20;99.90;;;;;;5113499;28;20080;-74
2021/12/15 04:51:37;;;;;;;84.15;18.38;;;3.20;99.90;;;;;;5095097;28;20040;-74
2021/12/15 04:54:05;;;;;;;36.25;14.02;;;3.10;99.90;;;;;;5111278;28;20496;-74
2021/12/15 04:56:37;;;;;;;33.97;12.60;;;3.10;99.90;;;;;;5112825;28;20183;-74
2021/12/15 04:59:10;;;;;;;38.72;13.55;;;3.10;99.90;;;;;;5111089;28;20135;-73
2021/12/15 05:01:42;;;;;;;31.60;13.15;;;3.10;99.90;;;;;;5094939;28;20048;-74
2021/12/15 05:04:15;;;;;;;63.75;14.80;;;3.10;99.90;;;;;;5095098;28;20508;-73
2021/12/15 05:06:47;;;;;;;47.35;14.15;;;3.10;99.90;;;;;;5112195;28;20077;-74
2021/12/15 05:09:19;;;;;;;30.92;13.90;;;3.10;99.90;;;;;;5123455;27;20071;-75
2021/12/15 05:11:49;;;;;;;29.88;12.38;;;3.10;99.90;;;;;;5116001;27;20062;-75
2021/12/15 05:14:17;;;;;;;28.38;12.27;;;3.10;99.90;;;;;;5113993;27;20384;-73
2021/12/15 05:16:45;;;;;;;29.25;11.40;;;3.20;99.90;;;;;;5116586;27;20126;-74
2021/12/15 05:19:18;;;;;;;28.02;11.55;;;3.20;99.90;;;;;;5117856;27;20047;-74
2021/12/15 05:21:51;;;;;;;36.45;11.52;;;3.10;99.90;;;;;;5132381;27;20050;-74
2021/12/15 05:27:15;;;;;;;30.60;12.38;;;3.20;99.90;;;;;;5124155;27;20135;-74
2021/12/15 05:29:43;;;;;;;29.27;12.60;;;3.20;99.90;;;;;;5109667;27;20085;-73
2021/12/15 05:32:18;;;;;;;34.67;13.73;;;3.20;99.90;;;;;;5105814;27;20150;-74
2021/12/15 05:34:54;;;;;;;158.45;19.92;;;3.20;99.90;;;;;;5151498;27;20095;-74
2021/12/15 05:37:22;;;;;;;31.63;11.73;;;3.20;99.90;;;;;;5150102;27;20047;-74
2021/12/15 05:39:52;;;;;;;34.65;14.07;;;3.20;99.90;;;;;;5125728;27;20138;-72
2021/12/15 05:42:26;;;;;;;40.17;13.15;;;3.20;99.90;;;;;;5131355;27;20043;-74
2021/12/15 05:44:58;;;;;;;46.08;14.27;;;3.20;99.90;;;;;;5131827;27;20075;-74
2021/12/15 05:47:27;;;;;;;24.35;10.68;;;3.20;99.90;;;;;;5127543;27;20067;-74
2021/12/15 05:49:55;;;;;;;38.65;11.43;;;3.20;99.90;;;;;;5125518;27;20621;-74
2021/12/15 05:52:30;;;;;;;34.75;12.13;;;3.20;99.90;;;;;;5109977;28;20066;-74
2021/12/15 05:55:05;;;;;;;65.95;13.93;;;3.20;99.90;;;;;;5107938;27;20088;-74
2021/12/15 05:57:32;;;;;;;36.88;11.07;;;3.20;99.90;;;;;;5128323;27;20042;-74
2021/12/15 06:00:17;;;;;;;63.80;13.30;;;3.20;99.90;;;;;;5126701;27;20478;-74
2021/12/15 06:02:49;;;;;;;42.25;11.25;;;3.20;99.90;;;;;;5116201;27;20048;-74
2021/12/15 06:05:16;;;;;;;31.52;10.65;;;3.20;99.90;;;;;;5138563;27;20111;-74
2021/12/15 06:07:48;;;;;;;44.65;11.35;;;3.20;99.90;;;;;;5135408;27;20047;-74
2021/12/15 06:10:26;;;;;;;24.90;10.98;;;3.20;99.90;;;;;;5104868;27;20053;-74
2021/12/15 06:13:00;;;;;;;38.00;14.52;;;3.10;99.90;;;;;;5113980;27;20115;-74
2021/12/15 06:15:29;;;;;;;30.67;11.93;;;3.20;99.90;;;;;;5092300;28;20039;-74
2021/12/15 06:18:05;;;;;;;68.32;19.40;;;3.20;99.90;;;;;;5124609;27;20063;-74
2021/12/15 06:20:33;;;;;;;74.05;26.35;;;3.20;99.90;;;;;;5127254;27;20533;-73
2021/12/15 06:23:17;;;;;;;47.08;18.95;;;3.20;99.90;;;;;;5112674;27;20461;-74
2021/12/15 06:25:46;;;;;;;59.10;17.60;;;3.20;99.90;;;;;;5129647;27;20096;-74
2021/12/15 06:28:18;;;;;;;;;;;3.20;99.90;;;;;;5129183;27;20505;-74
2021/12/15 06:30:45;;;;;;;55.85;16.95;;;3.20;99.90;;;;;;5109209;27;19919;-73
2021/12/15 06:33:13;;;;;;;64.43;15.55;;;3.20;99.90;;;;;;5118700;27;20114;-74
2021/12/15 06:35:53;;;;;;;37.30;15.02;;;3.20;99.90;;;;;;5129207;27;20035;-73
2021/12/15 06:38:31;;;;;;;50.92;16.23;;;3.20;99.90;;;;;;5138118;27;20085;-74
2021/12/15 06:41:06;;;;;;;43.63;15.73;;;3.20;99.90;;;;;;5129730;27;20130;-74
2021/12/15 06:43:39;;;;;;;41.00;15.95;;;3.20;99.90;;;;;;5127522;27;20040;-74
2021/12/15 06:59:55;;;;;;;41.13;17.70;;;3.30;99.90;;;;;;5110014;28;20062;-74
2021/12/15 07:02:27;;;;;;;42.73;17.27;;;3.30;99.90;;;;;;5109468;28;20048;-73
2021/12/15 07:04:59;;;;;;;48.05;18.50;;;3.30;99.90;;;;;;5093402;28;20048;-73
2021/12/15 07:07:31;;;;;;;40.75;18.55;;;3.30;99.90;;;;;;5109717;28;20135;-74
2021/12/15 07:10:10;;;;;;;41.17;16.73;;;3.30;99.90;;;;;;5110777;28;20054;-74
2021/12/15 07:12:39;;;;;;;38.58;18.40;;;3.30;99.90;;;;;;5092526;28;20389;-73
2021/12/15 07:15:09;;;;;;;36.17;15.95;;;3.30;99.90;;;;;;5092292;27;20046;-74
2021/12/15 07:17:44;;;;;;;50.22;18.92;;;3.30;99.90;;;;;;5133106;27;20050;-74
2021/12/15 07:23:01;;;;;;;39.28;16.30;;;3.30;99.90;;;;;;5128111;27;20035;-73
2021/12/15 07:25:29;;;;;;;42.88;17.50;;;3.30;99.90;;;;;;5142649;27;20095;-73
2021/12/15 07:27:56;;;;;;;36.15;15.52;;;3.30;99.90;;;;;;5138101;27;20383;-73
2021/12/15 07:30:24;;;;;;;38.13;16.38;;;3.30;99.90;;;;;;5155078;27;20043;-74
2021/12/15 07:32:51;;;;;;;48.13;19.85;;;3.30;99.90;;;;;;5151405;27;20047;-74
2021/12/15 07:35:19;;;;;;;49.63;21.42;;;3.30;99.90;;;;;;5115080;27;20039;-74
2021/12/15 07:37:46;;;;;;;46.15;21.10;;;3.30;99.90;;;;;;5134088;27;20554;-73
2021/12/15 07:40:21;;;;;;;44.13;19.23;;;3.30;99.90;;;;;;5133506;27;20518;-74
2021/12/15 07:43:06;;;;;;;54.03;18.48;;;3.30;99.90;;;;;;5116733;27;20043;-74
2021/12/15 07:45:38;;;;;;;54.15;18.95;;;3.30;99.90;;;;;;5112580;27;20570;-74
2021/12/15 07:48:13;;;;;;;46.70;18.38;;;3.30;99.90;;;;;;5105897;28;20066;-74
2021/12/15 07:50:43;;;;;;;58.85;21.73;;;3.30;99.90;;;;;;5130156;27;20051;-74
2021/12/15 07:53:15;;;;;;;43.85;18.48;;;3.30;99.90;;;;;;5132449;27;20070;-74
2021/12/15 07:55:49;;;;;;;50.03;20.90;;;3.30;99.90;;;;;;5116353;27;20059;-75
2021/12/15 07:58:22;;;;;;;53.83;20.27;;;3.40;99.90;;;;;;5115977;27;20035;-74
2021/12/15 08:00:56;;;;;;;43.25;19.15;;;3.40;99.90;;;;;;5128197;27;20051;-74
2021/12/15 08:03:23;;;;;;;49.08;19.67;;;3.40;99.90;;;;;;5134370;27;20126;-74
2021/12/15 08:05:55;;;;;;;40.13;16.95;;;3.40;99.90;;;;;;5125287;27;20031;-74
2021/12/15 08:08:22;;;;;;;39.28;16.92;;;3.40;99.90;;;;;;5134499;27;20095;-74
2021/12/15 08:10:56;;;;;;;40.17;16.73;;;3.40;99.90;;;;;;5152830;27;20047;-74
2021/12/15 08:13:28;;;;;;;37.45;16.25;;;3.40;99.90;;;;;;5149986;27;20050;-74
2021/12/15 08:16:01;;;;;;;35.03;14.68;;;3.40;99.90;;;;;;5116031;27;20296;-74
2021/12/15 08:18:33;;;;;;;33.25;14.30;;;3.40;99.90;;;;;;5124380;27;20044;-74
2021/12/15 08:21:06;;;;;;;39.70;15.20;;;3.50;99.90;;;;;;5125239;27;20039;-74
2021/12/15 08:23:37;;;;;;;37.22;14.15;;;3.40;99.90;;;;;;5127760;27;20047;-74
2021/12/15 08:26:05;;;;;;;36.88;14.45;;;3.50;99.90;;;;;;5114956;27;20074;-74
2021/12/15 08:28:37;;;;;;;32.38;14.27;;;3.50;99.90;;;;;;5110895;28;20127;-74
2021/12/15 08:31:08;;;;;;;34.25;14.68;;;3.50;99.90;;;;;;5130087;27;20038;-74
2021/12/15 08:33:37;;;;;;;35.75;16.08;;;3.50;99.90;;;;;;5132530;27;20130;-74
2021/12/15 08:36:11;;;;;;;33.10;13.70;;;3.50;99.90;;;;;;5113677;27;20074;-73
2021/12/15 08:38:46;;;;;;;35.75;15.18;;;3.50;99.90;;;;;;5112169;28;20039;-73
2021/12/15 08:41:24;;;;;;;33.88;14.20;;;3.60;99.90;;;;;;5109567;28;20039;-73
2021/12/15 08:43:58;;;;;;;34.60;16.02;;;3.60;99.90;;;;;;5095620;28;20043;-74
2021/12/15 08:46:32;;;;;;;31.45;14.30;;;3.60;99.90;;;;;;5131596;27;20122;-74
2021/12/15 08:49:00;;;;;;;31.90;14.95;;;3.70;99.90;;;;;;5132480;27;20486;-74
2021/12/15 08:51:34;;;;;;;36.20;14.85;;;3.70;99.90;;;;;;5132800;27;20129;-73
2021/12/15 08:54:04;;;;;;;32.70;14.18;;;3.60;99.90;;;;;;5132359;27;20066;-74
2021/12/15 08:56:37;;;;;;;31.63;13.63;;;3.70;99.90;;;;;;5132823;27;20043;-74
2021/12/15 08:59:05;;;;;;;38.00;16.17;;;3.70;99.90;;;;;;5133989;27;20059;-73
2021/12/15 09:01:32;;;;;;;39.13;13.85;;;3.70;99.90;;;;;;5137964;27;20107;-73
2021/12/15 09:04:04;;;;;;;39.38;16.70;;;3.70;99.90;;;;;;5118162;27;20068;-74
2021/12/15 09:06:39;;;;;;;40.03;17.42;;;3.70;99.90;;;;;;5109167;27;20035;-74
2021/12/15 09:09:13;;;;;;;34.55;16.45;;;3.80;99.90;;;;;;5111643;28;20046;-74
2021/12/15 09:11:41;;;;;;;46.78;20.63;;;3.80;99.90;;;;;;5127280;27;20047;-74
2021/12/15 09:14:12;;;;;;;38.22;17.13;;;3.80;99.90;;;;;;5113280;28;20089;-73
2021/12/15 09:16:43;;;;;;;32.35;13.88;;;3.80;99.90;;;;;;5127028;27;20031;-73
2021/12/15 09:19:10;;;;;;;34.00;15.02;;;3.80;99.90;;;;;;5133064;27;20039;-73
2021/12/15 09:21:38;;;;;;;38.00;22.30;;;3.90;99.90;;;;;;5134201;27;20071;-73
2021/12/15 09:24:15;;;;;;;35.85;20.08;;;3.90;99.90;;;;;;5133522;27;20467;-74
2021/12/15 09:26:47;;;;;;;32.63;16.40;;;3.90;99.90;;;;;;5131642;27;20521;-74
2021/12/15 09:29:19;;;;;;;28.40;13.45;;;3.90;99.90;;;;;;5110050;28;20820;-74
2021/12/15 09:31:53;;;;;;;30.77;15.65;;;3.90;99.90;;;;;;5095822;27;20138;-74
2021/12/15 09:34:20;;;;;;;32.55;14.38;;;3.90;99.90;;;;;;5131130;27;20092;-75
2021/12/15 09:36:53;;;;;;;29.25;13.90;;;4.00;99.90;;;;;;5129399;27;20134;-74
2021/12/15 09:39:23;;;;;;;30.52;14.20;;;4.00;99.90;;;;;;5112335;27;20134;-75
2021/12/15 09:41:55;;;;;;;28.27;12.70;;;4.00;99.90;;;;;;5100265;27;20130;-74
2021/12/15 09:44:25;;;;;;;27.75;13.90;;;4.00;99.90;;;;;;5110570;28;20092;-74
2021/12/15 09:47:18;;;;;;;31.90;16.17;;;4.00;99.90;;;;;;5121723;27;20556;-73
2021/12/15 10:06:54;;;;;;;21.65;11.45;;;4.20;99.90;;;;;;5126200;27;20502;-74
2021/12/15 10:17:49;;;;;;;19.98;11.02;;;4.20;99.90;;;;;;5134425;27;20121;-73
2021/12/15 10:20:20;;;;;;;16.30;9.27;;;4.30;99.90;;;;;;5132317;27;20118;-74
2021/12/15 10:22:59;;;;;;;17.92;9.43;;;4.30;99.90;;;;;;5130579;27;20066;-74
2021/12/15 10:25:30;;;;;;;17.60;9.40;;;4.30;99.90;;;;;;5130220;27;20089;-74
2021/12/15 10:28:18;;;;;;;14.32;8.57;;;4.40;99.90;;;;;;5129548;27;20045;-73
2021/12/15 10:30:57;;;;;;;14.60;8.00;;;4.30;99.90;;;;;;5130854;27;20060;-73
2021/12/15 10:33:36;;;;;;;13.52;7.45;;;4.40;99.90;;;;;;5130331;27;20045;-74
2021/12/15 10:36:12;;;;;;;16.65;8.77;;;4.40;99.90;;;;;;5114544;27;20049;-75
2021/12/15 10:38:51;;;;;;;13.70;8.63;;;4.40;99.90;;;;;;5114465;27;20039;-74
2021/12/15 10:41:23;;;;;;;14.27;8.30;;;4.40;99.90;;;;;;5130652;27;20074;-74
2021/12/15 10:44:00;;;;;;;19.02;10.63;;;4.40;99.90;;;;;;5131138;27;20129;-73
2021/12/15 10:46:40;;;;;;;18.10;9.93;;;4.50;99.90;;;;;;5130076;27;20122;-73
2021/12/15 10:49:22;;;;;;;11.70;7.03;;;4.50;99.90;;;;;;5129969;27;20035;-74
2021/12/15 10:52:05;;;;;;;11.25;6.80;;;4.50;99.90;;;;;;5130147;27;20039;-74
2021/12/15 10:54:46;;;;;;;8.90;6.07;;;4.50;99.90;;;;;;5130827;27;20035;-74
2021/12/15 10:57:17;;;;;;;11.38;6.90;;;4.50;99.90;;;;;;5130653;28;20103;-74
2021/12/15 10:59:52;;;;;;;10.30;6.72;;;4.50;99.90;;;;;;5131354;28;20069;-73
2021/12/15 11:02:28;;;;;;;10.20;6.63;;;4.50;99.90;;;;;;5130993;28;20121;-74
2021/12/15 11:05:17;;;;;;;10.20;5.32;;;4.60;99.90;;;;;;5120859;27;20063;-73
2021/12/15 11:07:58;;;;;;;9.57;6.22;;;4.60;99.90;;;;;;5110559;28;20134;-74
2021/12/15 11:10:35;;;;;;;8.75;5.60;;;4.60;99.90;;;;;;5126505;28;20043;-73
2021/12/15 11:13:10;;;;;;;6.55;4.85;;;4.60;99.90;;;;;;5113834;27;20566;-74
2021/12/15 11:15:48;;;;;;;8.50;4.70;;;4.60;99.90;;;;;;5126662;28;20039;-73
2021/12/15 11:18:23;;;;;;;8.90;5.35;;;4.60;99.90;;;;;;5110806;28;20131;-74
2021/12/15 11:20:55;;;;;;;8.88;5.15;;;4.60;99.90;;;;;;5126571;28;20594;-74
2021/12/15 11:23:29;;;;;;;12.50;7.03;;;4.60;99.90;;;;;;5129913;28;20070;-73
2021/12/15 11:26:02;;;;;;;9.63;6.68;;;4.60;99.90;;;;;;5130364;28;20047;-73
2021/12/15 11:28:38;;;;;;;13.85;7.50;;;4.60;99.90;;;;;;5120694;28;20076;-73
2021/12/15 11:31:14;;;;;;;15.93;12.05;;;4.60;99.90;;;;;;5107850;28;20067;-73
2021/12/15 11:33:52;;;;;;;19.67;14.15;;;4.60;99.90;;;;;;5109357;28;20059;-73
2021/12/15 11:36:32;;;;;;;16.52;10.85;;;4.70;99.90;;;;;;5110308;28;20119;-73
2021/12/15 11:39:01;;;;;;;13.43;8.80;;;4.70;99.90;;;;;;5108317;28;20058;-73
2021/12/15 11:41:29;;;;;;;20.38;13.55;;;4.70;99.90;;;;;;5109721;28;20072;-73
2021/12/15 11:44:05;;;;;;;17.23;11.75;;;4.70;99.90;;;;;;5109567;28;20507;-73
2021/12/15 11:46:58;;;;;;;12.98;9.05;;;4.70;99.90;;;;;;5122098;28;20043;-74
2021/12/15 11:49:31;;;;;;;9.13;6.15;;;4.70;99.90;;;;;;5129334;28;20454;-74
2021/12/15 11:52:13;;;;;;;11.98;6.95;;;4.80;99.90;;;;;;5112026;28;20100;-74
2021/12/15 11:54:48;;;;;;;10.40;7.30;;;4.80;99.90;;;;;;5112285;28;20547;-74
2021/12/15 11:57:28;;;;;;;8.20;5.47;;;4.80;99.90;;;;;;5125618;27;20054;-73
2021/12/15 12:00:06;;;;;;;8.65;5.85;;;4.80;99.90;;;;;;5122613;28;20106;-74
2021/12/15 12:02:39;;;;;;;8.13;5.25;;;4.70;99.90;;;;;;5122485;28;20043;-73
2021/12/15 12:05:24;;;;;;;8.43;6.28;;;4.80;99.90;;;;;;5117199;28;20127;-73
2021/12/15 12:08:03;;;;;;;10.27;6.10;;;4.80;99.90;;;;;;5100078;28;20047;-73
2021/12/15 12:11:04;;;;;;;10.35;5.78;;;4.80;99.90;;;;;;5106922;27;20054;-73
2021/12/15 12:13:39;;;;;;;10.48;6.32;;;4.80;99.90;;;;;;5134641;27;20126;-74
2021/12/15 12:16:07;;;;;;;9.10;6.30;;;4.80;99.90;;;;;;5133453;27;20059;-73
2021/12/15 12:18:35;;;;;;;10.70;6.05;;;4.80;99.90;;;;;;5133435;27;20035;-73
2021/12/15 12:21:09;;;;;;;10.73;5.97;;;4.80;99.90;;;;;;5119361;27;20031;-74
2021/12/15 12:23:37;;;;;;;8.73;5.85;;;4.90;99.90;;;;;;5120910;27;20320;-74
2021/12/15 12:26:10;;;;;;;8.50;5.30;;;4.90;99.90;;;;;;5105567;28;20043;-73
2021/12/15 12:28:46;;;;;;;6.27;4.47;;;4.90;99.90;;;;;;5132764;27;20122;-74
2021/12/15 12:31:21;;;;;;;8.80;5.38;;;4.90;99.90;;;;;;5094265;28;20074;-74
2021/12/15 12:33:53;;;;;;;7.15;5.18;;;4.90;99.90;;;;;;5118588;27;20051;-73
2021/12/15 12:36:31;;;;;;;9.20;5.60;;;4.90;99.90;;;;;;5112585;27;20043;-74
2021/12/15 12:39:10;;;;;;;9.93;6.60;;;4.90;99.90;;;;;;5127363;27;20043;-73
2021/12/15 12:41:41;;;;;;;11.68;6.95;;;4.90;99.90;;;;;;5116686;27;20558;-73
2021/12/15 12:44:10;;;;;;;13.63;7.38;;;4.90;99.90;;;;;;5131039;27;20111;-73
2021/12/15 12:46:48;;;;;;;82.82;35.50;;;4.90;99.90;;;;;;5127430;27;20248;-74
2021/12/15 12:49:54;;;;;;;40.50;19.63;;;4.90;99.90;;;;;;5127373;27;20047;-73
2021/12/15 13:01:19;;;;;;;15.10;10.02;;;4.80;99.90;;;;;;5141011;27;20107;-73
2021/12/15 13:03:55;;;;;;;12.77;8.55;;;4.80;99.90;;;;;;5135729;27;20066;-73
2021/12/15 13:06:28;;;;;;;11.23;8.23;;;4.80;99.90;;;;;;5117682;27;20077;-73
2021/12/15 13:09:10;;;;;;;13.73;8.20;;;4.80;99.90;;;;;;5151605;27;20413;-73
2021/12/15 13:11:47;;;;;;;10.70;7.45;;;4.80;99.90;;;;;;5136824;27;20121;-73
2021/12/15 13:14:36;;;;;;;10.40;7.20;;;4.80;99.90;;;;;;5152122;27;20075;-73
2021/12/15 13:17:19;;;;;;;;;;;4.80;99.90;;;;;;5141019;27;20488;-73
2021/12/15 13:19:53;;;;;;;10.27;6.75;;;4.80;99.90;;;;;;5111520;28;19920;-73
2021/12/15 13:30:56;;;;;;;10.93;6.63;;;4.80;99.90;;;;;;5112894;28;20122;-73
2021/12/15 13:33:35;;;;;;;10.07;6.50;;;4.80;99.90;;;;;;5110539;28;20051;-73
2021/12/15 13:36:37;;;;;;;11.93;7.82;;;4.80;99.90;;;;;;5111564;28;20579;-73
2021/12/15 13:39:13;;;;;;;9.05;6.43;;;4.80;99.90;;;;;;5110741;28;20146;-73
2021/12/15 13:42:08;;;;;;;10.43;6.15;;;4.80;99.90;;;;;;5113388;27;20122;-73
2021/12/15 13:44:45;;;;;;;10.57;6.13;;;4.70;99.90;;;;;;5138861;27;20602;-73
2021/12/15 13:47:24;;;;;;;10.48;6.38;;;4.80;99.90;;;;;;5119910;27;20134;-73
2021/12/15 13:50:12;;;;;;;9.50;6.15;;;4.70;99.90;;;;;;5130042;27;20121;-73
2021/12/15 13:52:44;;;;;;;12.25;7.88;;;4.70;99.90;;;;;;5110619;28;20042;-73
2021/12/15 13:55:20;;;;;;;10.30;7.00;;;4.70;99.90;;;;;;5126838;27;20126;-73
2021/12/15 13:57:52;;;;;;;12.50;8.18;;;4.70;99.90;;;;;;5124821;27;20060;-74
2021/12/15 14:00:33;;;;;;;11.00;6.97;;;4.70;99.90;;;;;;5134400;27;20039;-73
2021/12/15 14:03:31;;;;;;;12.73;7.53;;;4.70;99.90;;;;;;5112303;27;20039;-74
2021/12/15 14:06:03;;;;;;;15.15;8.43;;;4.80;99.90;;;;;;5101605;27;20044;-74
2021/12/15 14:08:40;;;;;;;14.93;7.78;;;4.80;99.90;;;;;;5108455;27;20477;-73
2021/12/15 14:11:20;;;;;;;12.70;7.60;;;4.80;99.90;;;;;;5095648;27;20035;-73
2021/12/15 14:14:14;;;;;;;13.52;7.90;;;4.80;99.90;;;;;;5110858;27;20380;-73
2021/12/15 14:16:53;;;;;;;21.42;11.88;;;4.80;99.90;;;;;;5130187;27;20039;-73
2021/12/15 14:19:33;;;;;;;14.43;9.27;;;4.70;99.90;;;;;;5113661;27;20035;-74
2021/12/15 14:22:07;;;;;;;15.40;9.15;;;4.70;99.90;;;;;;5131727;27;20063;-74
2021/12/15 14:24:40;;;;;;;15.23;8.85;;;4.70;99.90;;;;;;5129712;27;20125;-74
2021/12/15 14:27:07;;;;;;;14.60;7.80;;;4.70;99.90;;;;;;5137940;27;20067;-73
2021/12/15 14:29:39;;;;;;;15.93;9.32;;;4.70;99.90;;;;;;5126398;27;20402;-73
2021/12/15 14:32:08;;;;;;;14.98;9.07;;;4.70;99.90;;;;;;5134422;27;20117;-74
2021/12/15 14:34:41;;;;;;;16.30;9.10;;;4.70;99.90;;;;;;5146797;27;20491;-74
2021/12/15 14:37:17;;;;;;;10.23;6.95;;;4.70;99.90;;;;;;5114774;27;20043;-74
2021/12/15 14:39:47;;;;;;;12.07;7.57;;;4.70;99.90;;;;;;5109995;28;20131;-74
2021/12/15 14:42:26;;;;;;;13.70;7.72;;;4.60;99.90;;;;;;5115291;27;20127;-73
2021/12/15 14:44:59;;;;;;;15.52;8.63;;;4.60;99.90;;;;;;5131178;27;20053;-74
2021/12/15 14:47:30;;;;;;;17.45;9.52;;;4.60;99.90;;;;;;5131791;27;20118;-74